Time;durP1;ratioP1;P1;durP2;ratioP2;P2;SDS_P1;SDS_P2;PMS_P1;PMS_P2;Temp;Humidity;BMP_temperature;BMP_pressure;BME280_temperature;BME280_humidity;BME280_pressure;Samples;Min_cycle;Max_cycle;Signal;HPM_P1;HPM_P2
2021/08/16 00:00:43;;;;;;;;;;;20.30;99.90;;;;;;4945800;28;20538;-70
2021/08/16 00:03:10;;;;;;;;;;;20.30;99.90;;;;;;4962924;28;19972;-70
2021/08/16 00:05:38;;;;;;;;;;;20.30;99.90;;;;;;4955913;28;20051;-70
2021/08/16 00:08:09;;;;;;;;;;;20.30;99.90;;;;;;4940228;29;19922;-70
2021/08/16 00:10:37;;;;;;;;;;;20.30;99.90;;;;;;4953242;29;19950;-70
2021/08/16 00:13:04;;;;;;;;;;;20.30;99.90;;;;;;4953879;29;19922;-70
2021/08/16 00:15:31;;;;;;;;;;;20.30;99.90;;;;;;4952818;28;19926;-69
2021/08/16 00:17:59;;;;;;;;;;;20.40;99.90;;;;;;4953392;28;19926;-70
2021/08/16 00:20:27;;;;;;;;;;;20.40;99.90;;;;;;4934368;29;19993;-70
2021/08/16 00:22:54;;;;;;;;;;;20.40;99.90;;;;;;4953979;28;19964;-70
2021/08/16 00:25:22;;;;;;;;;;;20.30;99.90;;;;;;4953225;28;19926;-69
2021/08/16 00:27:49;;;;;;;;;;;20.30;99.90;;;;;;4937053;29;19933;-70
2021/08/16 00:30:17;;;;;;;;;;;20.20;99.90;;;;;;4957522;28;19961;-70
2021/08/16 00:32:44;;;;;;;;;;;20.20;99.90;;;;;;4936080;29;19926;-70
2021/08/16 00:35:12;;;;;;;;;;;20.10;99.90;;;;;;4956713;28;19922;-70
2021/08/16 00:37:39;;;;;;;;;;;20.00;99.90;;;;;;4961919;28;20021;-70
2021/08/16 00:40:06;;;;;;;;;;;20.00;99.90;;;;;;4957729;28;19923;-70
2021/08/16 00:42:34;;;;;;;;;;;19.90;99.90;;;;;;4934697;29;19933;-70
2021/08/16 00:45:03;;;;;;;;;;;19.90;99.90;;;;;;4940503;29;19926;-70
2021/08/16 00:47:31;;;;;;;;;;;19.90;99.90;;;;;;4956168;28;19926;-70
2021/08/16 00:49:58;;;;;;;;;;;19.90;99.90;;;;;;4940581;29;19929;-70
2021/08/16 00:52:26;;;;;;;;;;;19.90;99.90;;;;;;4956817;29;19926;-70
2021/08/16 00:54:54;;;;;;;;;;;19.80;99.90;;;;;;4954006;28;20495;-70
2021/08/16 00:57:22;;;;;;;;;;;19.80;99.90;;;;;;4953182;28;19926;-70
2021/08/16 00:59:49;;;;;;;;;;;19.80;99.90;;;;;;4938549;29;19930;-70
2021/08/16 01:02:16;;;;;;;;;;;19.80;99.90;;;;;;4937552;28;19923;-70
2021/08/16 01:04:44;;;;;;;;;;;19.80;99.90;;;;;;4956185;28;19926;-70
2021/08/16 01:07:11;;;;;;;;;;;19.80;99.90;;;;;;4941627;28;19926;-70
2021/08/16 01:09:38;;;;;;;;;;;19.80;99.90;;;;;;4956630;29;19929;-70
2021/08/16 01:12:06;;;;;;;;;;;19.70;99.90;;;;;;4957210;29;19929;-70
2021/08/16 01:14:33;;;;;;;;;;;19.70;99.90;;;;;;4939387;29;19970;-70
2021/08/16 01:17:00;;;;;;;;;;;19.70;99.90;;;;;;4966146;28;20293;-70
2021/08/16 01:19:27;;;;;;;;;;;19.70;99.90;;;;;;4938621;29;19933;-70
2021/08/16 01:21:55;;;;;;;;;;;19.60;99.90;;;;;;4956427;28;19933;-70
2021/08/16 01:24:22;;;;;;;;;;;19.70;99.90;;;;;;4920509;29;20293;-70
2021/08/16 01:26:49;;;;;;;;;;;19.60;99.90;;;;;;4956424;28;19926;-70
2021/08/16 01:29:23;;;;;;;;;;;19.60;99.90;;;;;;4939746;29;19950;-70
2021/08/16 01:31:58;;;;;;;;;;;19.60;99.90;;;;;;4955317;28;19940;-70
2021/08/16 01:34:26;;;;;;;;;;;19.60;99.90;;;;;;4957172;29;20033;-70
2021/08/16 01:36:53;;;;;;;;;;;19.60;99.90;;;;;;4937369;29;19937;-70
2021/08/16 01:39:20;;;;;;;;;;;19.60;99.90;;;;;;4965374;28;20025;-70
2021/08/16 01:41:48;;;;;;;;;;;19.60;99.90;;;;;;4965985;28;19923;-70
2021/08/16 01:44:19;;;;;;;;;;;19.60;99.90;;;;;;4948558;29;19922;-70
2021/08/16 01:46:46;;;;;;;;;;;19.60;99.90;;;;;;4954770;28;19966;-70
2021/08/16 01:49:13;;;;;;;;;;;19.50;99.90;;;;;;4967773;28;19938;-70
2021/08/16 01:51:41;;;;;;;;;;;19.50;99.90;;;;;;4955628;29;19931;-70
2021/08/16 01:54:09;;;;;;;;;;;19.50;99.90;;;;;;4937180;28;19926;-70
2021/08/16 01:56:37;;;;;;;;;;;19.40;99.90;;;;;;4949400;28;19926;-70
2021/08/16 01:59:04;;;;;;;;;;;19.40;99.90;;;;;;4960822;28;19926;-70
2021/08/16 02:01:31;;;;;;;;;;;19.40;99.90;;;;;;4953736;28;20281;-70
2021/08/16 02:03:59;;;;;;;;;;;19.50;99.90;;;;;;4922786;29;19926;-70
2021/08/16 02:06:26;;;;;;;;;;;19.40;99.90;;;;;;4960948;28;19922;-70
2021/08/16 02:08:55;;;;;;;;;;;19.40;99.90;;;;;;4938523;29;19972;-70
2021/08/16 02:11:23;;;;;;;;;;;19.40;99.90;;;;;;4956263;28;19969;-70
2021/08/16 02:13:50;;;;;;;;;;;19.30;99.90;;;;;;4922540;29;19929;-70
2021/08/16 02:16:17;;;;;;;;;;;19.40;99.90;;;;;;4954750;29;19965;-70
2021/08/16 02:18:44;;;;;;;;;;;19.40;99.90;;;;;;4954001;29;19929;-70
2021/08/16 02:21:11;;;;;;;;;;;19.40;99.90;;;;;;4949733;28;19934;-70
2021/08/16 02:23:38;;;;;;;;;;;19.30;99.90;;;;;;4954940;28;19946;-70
2021/08/16 02:26:06;;;;;;;;;;;19.40;99.90;;;;;;4952957;28;20400;-70
2021/08/16 02:28:33;;;;;;;;;;;19.40;99.90;;;;;;4965859;28;19930;-70
2021/08/16 02:31:01;;;;;;;;;;;19.30;99.90;;;;;;4954559;29;19927;-68
2021/08/16 02:33:28;;;;;;;;;;;19.40;99.90;;;;;;4953876;28;19926;-70
2021/08/16 02:35:55;;;;;;;;;;;19.30;99.90;;;;;;4922244;29;20278;-69
2021/08/16 02:38:23;;;;;;;;;;;19.30;99.90;;;;;;4934004;28;19922;-70
2021/08/16 02:40:50;;;;;;;;;;;19.30;99.90;;;;;;4959074;28;19929;-70
2021/08/16 02:43:17;;;;;;;;;;;19.30;99.90;;;;;;4960053;28;19926;-70
2021/08/16 02:45:44;;;;;;;;;;;19.20;99.90;;;;;;4953408;28;19945;-70
2021/08/16 02:48:11;;;;;;;;;;;19.20;99.90;;;;;;4952454;29;19929;-70
2021/08/16 02:50:38;;;;;;;;;;;19.20;99.90;;;;;;4955237;29;20293;-70
2021/08/16 02:53:07;;;;;;;;;;;19.20;99.90;;;;;;4936256;29;20016;-70
2021/08/16 02:55:34;;;;;;;;;;;19.10;99.90;;;;;;4952599;28;19926;-69
2021/08/16 02:58:01;;;;;;;;;;;19.10;99.90;;;;;;4954556;28;20017;-70
2021/08/16 03:00:28;;;;;;;;;;;19.10;99.90;;;;;;4954344;28;20344;-70
2021/08/16 03:02:55;;;;;;;;;;;19.10;99.90;;;;;;4950509;28;19929;-70
2021/08/16 03:05:23;;;;;;;;;;;19.10;99.90;;;;;;4962485;28;19933;-70
2021/08/16 03:07:50;;;;;;;;;;;19.10;99.90;;;;;;4931496;29;19927;-70
2021/08/16 03:10:18;;;;;;;;;;;19.10;99.90;;;;;;4936177;29;19922;-70
2021/08/16 03:12:45;;;;;;;;;;;19.00;99.90;;;;;;4941375;29;19927;-70
2021/08/16 03:15:13;;;;;;;;;;;19.00;99.90;;;;;;4954262;28;19973;-70
2021/08/16 03:17:40;;;;;;;;;;;19.00;99.90;;;;;;4954447;28;20017;-70
2021/08/16 03:20:08;;;;;;;;;;;19.00;99.90;;;;;;4954648;29;20009;-70
2021/08/16 03:22:35;;;;;;;;;;;19.00;99.90;;;;;;4936293;29;19926;-70
2021/08/16 03:25:02;;;;;;;;;;;19.00;99.90;;;;;;4935921;28;19923;-70
2021/08/16 03:27:30;;;;;;;;;;;19.00;99.90;;;;;;4944905;28;20407;-68
2021/08/16 03:29:57;;;;;;;;;;;18.90;99.90;;;;;;4936696;29;19922;-69
2021/08/16 03:32:25;;;;;;;;;;;18.90;99.90;;;;;;4954188;28;19926;-68
2021/08/16 03:34:52;;;;;;;;;;;18.90;99.90;;;;;;4954221;29;19926;-68
2021/08/16 03:37:19;;;;;;;;;;;18.90;99.90;;;;;;4953348;29;20374;-68
2021/08/16 03:39:46;;;;;;;;;;;18.90;99.90;;;;;;4953371;28;19974;-70
2021/08/16 03:42:13;;;;;;;;;;;18.90;99.90;;;;;;4956558;28;19921;-70
2021/08/16 03:44:43;;;;;;;;;;;18.90;99.90;;;;;;4961972;28;20378;-70
2021/08/16 03:47:10;;;;;;;;;;;18.90;99.90;;;;;;4935451;29;20441;-70
2021/08/16 03:49:37;;;;;;;;;;;19.00;99.90;;;;;;4952583;28;20381;-70
2021/08/16 03:52:04;;;;;;;;;;;19.10;99.90;;;;;;4936208;29;19961;-70
2021/08/16 03:54:32;;;;;;;;;;;19.10;99.90;;;;;;4935730;29;19930;-70
2021/08/16 03:56:59;;;;;;;;;;;19.20;99.90;;;;;;4936421;28;19922;-70
2021/08/16 03:59:26;;;;;;;;;;;19.20;99.90;;;;;;4957440;28;19922;-70
2021/08/16 04:01:53;;;;;;;;;;;19.20;99.90;;;;;;4919487;29;20293;-70
2021/08/16 04:04:20;;;;;;;;;;;19.30;99.90;;;;;;4941126;28;19933;-70
2021/08/16 04:06:49;;;;;;;;;;;19.30;99.90;;;;;;4961153;28;20496;-70
2021/08/16 04:09:16;;;;;;;;;;;19.30;99.90;;;;;;4951031;28;19927;-69
2021/08/16 04:11:43;;;;;;;;;;;19.30;99.90;;;;;;4952291;28;19926;-70
2021/08/16 04:14:10;;;;;;;;;;;19.30;99.90;;;;;;4952684;28;19937;-70
2021/08/16 04:16:38;;;;;;;;;;;19.30;99.90;;;;;;4920900;29;19922;-70
2021/08/16 04:19:06;;;;;;;;;;;19.30;99.90;;;;;;4936221;29;20101;-70
2021/08/16 04:21:33;;;;;;;;;;;19.30;99.90;;;;;;4936904;28;20448;-70
2021/08/16 04:24:00;;;;;;;;;;;19.40;99.90;;;;;;4948240;28;20643;-70
2021/08/16 04:26:27;;;;;;;;;;;19.30;99.90;;;;;;4934990;29;19923;-70
2021/08/16 04:28:54;;;;;;;;;;;19.40;99.90;;;;;;4964382;28;19968;-70
2021/08/16 04:31:22;;;;;;;;;;;19.40;99.90;;;;;;4953026;29;19945;-70
2021/08/16 04:33:49;;;;;;;;;;;19.40;99.90;;;;;;4949690;28;19981;-70
2021/08/16 04:36:16;;;;;;;;;;;19.50;99.90;;;;;;4953620;28;19945;-70
2021/08/16 04:38:43;;;;;;;;;;;19.50;99.90;;;;;;4953298;28;19929;-70
2021/08/16 04:41:10;;;;;;;;;;;19.60;99.90;;;;;;4962167;28;20501;-70
2021/08/16 04:43:37;;;;;;;;;;;19.60;99.90;;;;;;4952958;29;19930;-70
2021/08/16 04:46:05;;;;;;;;;;;19.70;99.90;;;;;;4936451;29;20013;-70
2021/08/16 04:48:32;;;;;;;;;;;19.70;99.90;;;;;;4953289;29;19938;-70
2021/08/16 04:50:59;;;;;;;;;;;19.80;99.90;;;;;;4933820;29;20025;-70
2021/08/16 04:53:26;;;;;;;;;;;19.80;99.90;;;;;;4952241;28;19926;-70
2021/08/16 04:55:53;;;;;;;;;;;19.80;99.90;;;;;;4946092;29;19929;-70
2021/08/16 04:58:20;;;;;;;;;;;19.80;99.90;;;;;;4951154;28;19922;-70
2021/08/16 05:00:48;;;;;;;;;;;19.80;99.90;;;;;;4942637;29;19934;-69
2021/08/16 05:03:15;;;;;;;;;;;19.70;99.90;;;;;;4950866;28;19926;-70
2021/08/16 05:05:52;;;;;;;;;;;19.70;99.90;;;;;;4949457;28;19949;-69
2021/08/16 05:08:19;;;;;;;;;;;19.70;99.90;;;;;;4953776;28;19926;-69
2021/08/16 05:10:47;;;;;;;;;;;19.70;99.90;;;;;;4952672;29;19922;-70
2021/08/16 05:13:14;;;;;;;;;;;19.70;99.90;;;;;;4953364;28;19949;-70
2021/08/16 05:15:44;;;;;;;;;;;19.70;99.90;;;;;;4942696;29;20361;-70
2021/08/16 05:18:12;;;;;;;;;;;19.70;99.90;;;;;;4952981;29;19926;-69
2021/08/16 05:20:39;;;;;;;;;;;19.70;99.90;;;;;;4953969;28;19926;-69
2021/08/16 05:23:06;;;;;;;;;;;19.70;99.90;;;;;;4956222;28;19926;-69
2021/08/16 05:25:34;;;;;;;;;;;19.70;99.90;;;;;;4936625;28;19929;-68
2021/08/16 05:28:01;;;;;;;;;;;19.70;99.90;;;;;;4923263;29;19933;-68
2021/08/16 05:30:28;;;;;;;;;;;19.70;99.90;;;;;;4956393;28;20346;-68
2021/08/16 05:32:55;;;;;;;;;;;19.70;99.90;;;;;;4934750;29;19927;-70
2021/08/16 05:35:22;;;;;;;;;;;19.70;99.90;;;;;;4946671;28;20384;-70
2021/08/16 05:37:49;;;;;;;;;;;19.60;99.90;;;;;;4918977;29;20357;-68
2021/08/16 05:40:17;;;;;;;;;;;19.60;99.90;;;;;;4944664;28;19934;-68
2021/08/16 05:42:44;;;;;;;;;;;19.70;99.90;;;;;;4955311;28;20317;-68
2021/08/16 05:45:12;;;;;;;;;;;19.70;99.90;;;;;;4940869;28;19969;-68
2021/08/16 05:47:39;;;;;;;;;;;19.80;99.90;;;;;;4947021;28;19926;-69
2021/08/16 05:50:07;;;;;;;;;;;19.70;99.90;;;;;;4938765;28;20021;-68
2021/08/16 05:52:35;;;;;;;;;;;19.80;99.90;;;;;;4956016;28;20316;-68
2021/08/16 05:55:02;;;;;;;;;;;19.70;99.90;;;;;;4938128;28;20292;-69
2021/08/16 05:57:30;;;;;;;;;;;19.80;99.90;;;;;;4962738;28;19926;-70
2021/08/16 05:59:57;;;;;;;;;;;19.80;99.90;;;;;;4938001;28;19957;-69
2021/08/16 06:02:24;;;;;;;;;;;19.90;99.90;;;;;;4955018;28;19932;-69
2021/08/16 06:04:52;;;;;;;;;;;20.10;99.90;;;;;;4935114;29;19970;-70
2021/08/16 06:07:21;;;;;;;;;;;20.10;99.90;;;;;;4942667;28;19930;-69
2021/08/16 06:09:48;;;;;;;;;;;20.30;99.90;;;;;;4953075;28;19961;-69
2021/08/16 06:12:16;;;;;;;;;;;20.40;99.90;;;;;;4956806;28;20471;-70
2021/08/16 06:14:43;;;;;;;;;;;20.40;99.90;;;;;;4931914;29;19929;-70
2021/08/16 06:17:11;;;;;;;;;;;20.50;99.90;;;;;;4928582;28;20304;-70
2021/08/16 06:19:38;;;;;;;;;;;20.70;99.90;;;;;;4955125;29;19964;-70
2021/08/16 06:22:05;;;;;;;;;;;20.80;99.90;;;;;;4953542;28;19922;-70
2021/08/16 06:24:34;;;;;;;;;;;20.90;99.90;;;;;;4955139;28;20369;-69
2021/08/16 06:27:01;;;;;;;;;;;20.90;99.90;;;;;;4953526;28;19930;-70
2021/08/16 06:29:29;;;;;;;;;;;21.00;99.90;;;;;;4937900;29;20390;-70
2021/08/16 06:31:56;;;;;;;;;;;21.00;99.90;;;;;;4958568;28;19960;-71
2021/08/16 06:34:24;;;;;;;;;;;21.10;99.90;;;;;;4934149;28;20027;-71
2021/08/16 06:36:57;;;;;;;;;;;21.20;99.90;;;;;;4952170;28;19937;-71
2021/08/16 06:39:27;;;;;;;;;;;21.40;99.90;;;;;;4937112;28;19922;-70
2021/08/16 06:41:54;;;;;;;;;;;21.30;99.90;;;;;;4949498;28;20024;-71
2021/08/16 06:44:23;;;;;;;;;;;21.40;99.90;;;;;;4936909;28;19930;-71
2021/08/16 06:46:51;;;;;;;;;;;21.40;99.90;;;;;;4953087;28;19933;-71
2021/08/16 06:49:18;;;;;;;;;;;21.40;99.90;;;;;;4928332;29;19933;-71
2021/08/16 06:51:46;;;;;;;;;;;21.50;99.90;;;;;;4936875;28;19965;-71
2021/08/16 06:54:13;;;;;;;;;;;21.50;99.90;;;;;;4943576;28;19981;-70
2021/08/16 06:56:58;;;;;;;;;;;21.60;99.90;;;;;;4936501;29;19923;-71
2021/08/16 06:59:25;;;;;;;;;;;21.60;99.90;;;;;;4953397;29;19953;-70
2021/08/16 07:01:53;;;;;;;;;;;21.60;99.90;;;;;;4952458;28;20034;-71
2021/08/16 07:04:20;;;;;;;;;;;21.70;99.90;;;;;;4953792;28;19940;-72
2021/08/16 07:06:48;;;;;;;;;;;21.70;99.90;;;;;;4953517;28;20006;-71
2021/08/16 07:09:15;;;;;;;;;;;21.60;99.90;;;;;;4952858;28;20464;-71
2021/08/16 07:11:43;;;;;;;;;;;21.70;99.90;;;;;;4953743;28;19926;-69
2021/08/16 07:14:10;;;;;;;;;;;21.50;99.90;;;;;;4952507;28;19926;-71
2021/08/16 07:16:37;;;;;;;;;;;21.40;99.90;;;;;;4952379;28;19930;-71
2021/08/16 07:19:04;;;;;;;;;;;21.40;99.90;;;;;;4933599;28;19922;-70
2021/08/16 07:21:31;;;;;;;;;;;21.50;99.90;;;;;;4953044;28;19928;-70
2021/08/16 07:23:59;;;;;;;;;;;21.60;99.90;;;;;;4952692;28;19965;-71
2021/08/16 07:26:26;;;;;;;;;;;21.70;99.90;;;;;;4950140;28;19926;-70
2021/08/16 07:28:54;;;;;;;;;;;21.60;99.90;;;;;;4954230;28;19926;-70
2021/08/16 07:31:21;;;;;;;;;;;21.50;99.90;;;;;;4954758;28;20359;-70
2021/08/16 07:33:50;;;;;;;;;;;21.50;99.90;;;;;;4940514;28;20001;-69
2021/08/16 07:36:17;;;;;;;;;;;21.60;99.90;;;;;;4943657;28;19926;-72
2021/08/16 07:38:44;;;;;;;;;;;21.70;99.90;;;;;;4946438;28;19922;-71
2021/08/16 07:41:11;;;;;;;;;;;21.70;99.90;;;;;;4922778;28;19922;-70
2021/08/16 07:43:39;;;;;;;;;;;21.70;99.90;;;;;;4938319;28;20013;-70
2021/08/16 07:46:06;;;;;;;;;;;21.70;99.90;;;;;;4965025;28;19922;-70
2021/08/16 07:48:33;;;;;;;;;;;21.80;99.90;;;;;;4955556;28;19945;-70
2021/08/16 07:51:00;;;;;;;;;;;21.80;99.90;;;;;;4959644;28;19927;-71
2021/08/16 07:53:28;;;;;;;;;;;21.90;99.90;;;;;;4955723;28;19922;-71
2021/08/16 07:55:56;;;;;;;;;;;21.80;99.90;;;;;;4958119;28;19922;-71
2021/08/16 07:58:24;;;;;;;;;;;21.80;99.90;;;;;;4951993;28;20422;-71
2021/08/16 08:00:51;;;;;;;;;;;21.80;99.90;;;;;;4929756;29;20321;-72
2021/08/16 08:03:18;;;;;;;;;;;22.00;99.90;;;;;;4954567;28;20305;-72
2021/08/16 08:05:46;;;;;;;;;;;22.30;99.90;;;;;;4952465;29;20396;-70
2021/08/16 08:08:14;;;;;;;;;;;22.40;99.90;;;;;;4935758;28;19926;-72
2021/08/16 08:10:41;;;;;;;;;;;22.50;99.90;;;;;;4946228;28;20016;-72
2021/08/16 08:13:09;;;;;;;;;;;22.70;99.90;;;;;;4952629;29;19926;-72
2021/08/16 08:15:36;;;;;;;;;;;22.80;99.90;;;;;;4935159;29;19923;-71
2021/08/16 08:18:03;;;;;;;;;;;22.70;99.90;;;;;;4952039;28;20277;-71
2021/08/16 08:20:30;;;;;;;;;;;22.80;99.90;;;;;;4942568;28;20297;-71
2021/08/16 08:22:58;;;;;;;;;;;22.80;99.90;;;;;;4951850;28;20274;-71
2021/08/16 08:25:25;;;;;;;;;;;22.90;99.90;;;;;;4942877;28;20029;-71
2021/08/16 08:27:52;;;;;;;;;;;22.90;99.90;;;;;;4954904;28;20386;-70
2021/08/16 08:30:20;;;;;;;;;;;22.80;99.90;;;;;;4956017;28;19945;-71
2021/08/16 08:32:53;;;;;;;;;;;22.70;99.90;;;;;;4952294;28;20429;-72
2021/08/16 08:35:20;;;;;;;;;;;22.70;99.90;;;;;;4956119;28;20024;-70
2021/08/16 08:37:48;;;;;;;;;;;22.70;99.90;;;;;;4950548;28;20346;-71
2021/08/16 08:40:16;;;;;;;;;;;22.50;99.90;;;;;;4949785;28;19934;-70
2021/08/16 08:42:52;;;;;;;;;;;22.30;99.90;;;;;;4958307;28;19926;-70
2021/08/16 08:45:21;;;;;;;;;;;22.20;99.90;;;;;;4956622;28;19954;-72
2021/08/16 08:47:48;;;;;;;;;;;22.30;99.90;;;;;;4933907;28;19929;-71
2021/08/16 08:50:16;;;;;;;;;;;22.50;99.90;;;;;;4951247;28;20401;-69
2021/08/16 08:52:44;;;;;;;;;;;22.60;99.90;;;;;;4951838;28;19926;-69
2021/08/16 08:55:12;;;;;;;;;;;22.60;99.90;;;;;;4937074;29;19926;-68
2021/08/16 08:58:01;;;;;;;;;;;22.50;99.90;;;;;;4956042;28;19923;-69
2021/08/16 09:00:28;;;;;;;;;;;22.60;99.90;;;;;;4947673;28;20385;-69
2021/08/16 09:03:00;;;;;;;;;;;22.60;99.90;;;;;;4952374;28;19981;-67
2021/08/16 09:05:27;;;;;;;;;;;22.50;99.90;;;;;;4963816;28;19937;-69
2021/08/16 09:07:55;;;;;;;;;;;22.60;99.90;;;;;;4960766;28;19923;-68
2021/08/16 09:10:23;;;;;;;;;;;22.60;99.90;;;;;;4944828;29;20300;-68
2021/08/16 09:12:54;;;;;;;;;;;22.70;99.90;;;;;;4955026;29;20308;-68
2021/08/16 09:15:25;;;;;;;;;;;22.60;99.90;;;;;;4955743;29;20329;-68
2021/08/16 09:17:53;;;;;;;;;;;22.60;99.90;;;;;;4937052;29;20005;-68
2021/08/16 09:20:23;;;;;;;;;;;22.70;99.90;;;;;;4968954;28;20372;-68
2021/08/16 09:22:59;;;;;;;;;;;22.60;99.90;;;;;;4944623;28;19964;-68
2021/08/16 09:25:29;;;;;;;;;;;22.50;99.90;;;;;;4951165;29;19922;-68
2021/08/16 09:27:57;;;;;;;;;;;22.40;99.90;;;;;;4952972;28;19922;-69
2021/08/16 09:30:31;;;;;;;;;;;22.20;99.90;;;;;;4958062;28;20288;-68
2021/08/16 09:32:58;;;;;;;;;;;22.20;99.90;;;;;;4937508;29;19922;-70
2021/08/16 09:35:26;;;;;;;;;;;22.20;99.90;;;;;;4966391;28;20006;-68
2021/08/16 09:37:55;;;;;;;;;;;22.00;99.90;;;;;;4954338;28;19929;-69
2021/08/16 09:40:22;;;;;;;;;;;22.10;99.90;;;;;;4963890;28;19926;-69
2021/08/16 09:42:50;;;;;;;;;;;22.20;99.90;;;;;;4945807;28;19923;-69
2021/08/16 09:45:28;;;;;;;;;;;22.40;99.90;;;;;;4959439;28;20385;-69
2021/08/16 09:47:58;;;;;;;;;;;22.60;99.90;;;;;;4953720;28;20337;-68
2021/08/16 09:50:45;;;;;;;;;;;22.70;99.90;;;;;;4952693;28;19926;-69
2021/08/16 09:53:17;;;;;;;;;;;22.90;99.90;;;;;;4964974;28;19922;-68
2021/08/16 09:55:46;;;;;;;;;;;23.00;99.90;;;;;;4954480;28;19922;-68
2021/08/16 09:58:15;;;;;;;;;;;23.10;99.90;;;;;;4956074;28;19926;-70
2021/08/16 10:00:50;;;;;;;;;;;23.40;99.90;;;;;;4961857;28;19929;-68
2021/08/16 10:03:18;;;;;;;;;;;23.30;99.90;;;;;;4954664;28;19926;-68
2021/08/16 10:05:47;;;;;;;;;;;23.10;99.90;;;;;;4940950;28;19930;-68
2021/08/16 10:08:25;;;;;;;;;;;23.30;99.90;;;;;;4952130;28;19944;-68
2021/08/16 10:10:53;;;;;;;;;;;23.50;99.90;;;;;;4936783;29;19970;-70
2021/08/16 10:13:21;;;;;;;;;;;23.60;99.90;;;;;;4936110;28;19937;-69
2021/08/16 10:15:53;;;;;;;;;;;23.70;99.90;;;;;;4951271;28;20025;-68
2021/08/16 10:18:23;;;;;;;;;;;23.40;99.90;;;;;;4956733;28;19926;-69
2021/08/16 10:20:50;;;;;;;;;;;23.50;99.90;;;;;;4937706;29;19922;-67
2021/08/16 10:23:18;;;;;;;;;;;23.50;99.90;;;;;;4951582;28;19981;-67
2021/08/16 10:25:46;;;;;;;;;;;23.30;99.90;;;;;;4954130;28;19926;-68
2021/08/16 10:28:22;;;;;;;;;;;23.30;99.90;;;;;;4936933;28;19930;-67
2021/08/16 10:30:50;;;;;;;;;;;23.30;99.90;;;;;;4925059;29;19926;-68
2021/08/16 10:33:18;;;;;;;;;;;23.60;99.90;;;;;;4958085;28;19954;-67
2021/08/16 10:35:46;;;;;;;;;;;23.60;99.90;;;;;;4954124;28;19926;-68
2021/08/16 10:38:14;;;;;;;;;;;23.50;99.90;;;;;;4928317;29;19929;-67
2021/08/16 10:40:43;;;;;;;;;;;23.50;99.90;;;;;;4950448;29;20390;-68
2021/08/16 10:43:12;;;;;;;;;;;23.50;99.90;;;;;;4953942;28;19926;-67
2021/08/16 10:45:44;;;;;;;;;;;23.70;99.90;;;;;;4954968;28;19927;-68
2021/08/16 10:48:19;;;;;;;;;;;23.60;99.90;;;;;;4955837;28;19929;-69
2021/08/16 10:50:47;;;;;;;;;;;23.70;99.90;;;;;;4956334;28;20025;-68
2021/08/16 10:53:14;;;;;;;;;;;23.50;99.90;;;;;;4953514;28;19985;-68
2021/08/16 10:55:42;;;;;;;;;;;23.70;99.90;;;;;;4955041;28;20045;-68
2021/08/16 10:58:11;;;;;;;;;;;23.80;99.90;;;;;;4953672;28;19929;-67
2021/08/16 11:00:39;;;;;;;;;;;24.00;99.90;;;;;;4953241;28;20202;-67
2021/08/16 11:03:07;;;;;;;;;;;23.90;99.90;;;;;;4934955;28;19930;-67
2021/08/16 11:05:37;;;;;;;;;;;24.00;99.90;;;;;;4955067;28;19950;-67
2021/08/16 11:08:06;;;;;;;;;;;23.90;99.90;;;;;;4952339;28;19961;-68
2021/08/16 11:10:38;;;;;;;;;;;23.80;99.90;;;;;;4942804;29;19950;-69
2021/08/16 11:13:17;;;;;;;;;;;23.60;99.90;;;;;;4948008;29;19980;-68
2021/08/16 11:15:46;;;;;;;;;;;23.40;99.90;;;;;;4966941;29;19946;-68
2021/08/16 11:18:18;;;;;;;;;;;23.20;99.90;;;;;;4947200;29;20374;-69
2021/08/16 11:20:54;;;;;;;;;;;23.40;99.90;;;;;;4953717;28;20044;-69
2021/08/16 11:23:22;;;;;;;;;;;23.70;99.90;;;;;;4957217;28;20399;-69
2021/08/16 11:25:50;;;;;;;;;;;24.20;99.90;;;;;;4942037;28;19981;-69
2021/08/16 11:28:19;;;;;;;;;;;24.20;99.90;;;;;;4956175;28;19922;-69
2021/08/16 11:30:47;;;;;;;;;;;24.30;99.90;;;;;;4959956;28;19922;-69
2021/08/16 11:33:25;;;;;;;;;;;24.30;99.90;;;;;;4955399;28;20308;-69
2021/08/16 11:36:05;;;;;;;;;;;23.90;99.90;;;;;;4957092;28;19969;-68
2021/08/16 11:38:33;;;;;;;;;;;23.70;99.90;;;;;;4955608;28;20017;-69
2021/08/16 11:41:02;;;;;;;;;;;23.30;99.90;;;;;;4956260;28;19966;-68
2021/08/16 11:43:29;;;;;;;;;;;23.10;99.90;;;;;;4961297;28;19969;-69
2021/08/16 11:45:56;;;;;;;;;;;23.20;99.90;;;;;;4939472;28;19922;-68
2021/08/16 11:48:24;;;;;;;;;;;23.20;99.90;;;;;;4951397;28;19931;-69
2021/08/16 11:50:55;;;;;;;;;;;23.30;99.90;;;;;;4956340;28;19994;-68
2021/08/16 11:53:23;;;;;;;;;;;23.40;99.90;;;;;;4938552;28;19922;-67
2021/08/16 11:56:01;;;;;;;;;;;23.70;99.90;;;;;;4957670;28;19926;-67
2021/08/16 11:58:44;;;;;;;;;;;23.80;99.90;;;;;;4946742;28;20359;-68
2021/08/16 12:01:12;;;;;;;;;;;23.70;99.90;;;;;;4953713;28;20366;-69
2021/08/16 12:03:40;;;;;;;;;;;23.60;99.90;;;;;;4955054;28;19922;-70
2021/08/16 12:06:12;;;;;;;;;;;23.60;99.90;;;;;;4954681;28;19930;-70
2021/08/16 12:08:40;;;;;;;;;;;23.80;99.90;;;;;;4945838;28;19925;-69
2021/08/16 12:11:11;;;;;;;;;;;24.00;99.90;;;;;;4935909;29;19922;-67
2021/08/16 12:13:39;;;;;;;;;;;24.30;99.90;;;;;;4965733;28;19923;-68
2021/08/16 12:16:07;;;;;;;;;;;24.60;99.90;;;;;;4952856;28;19922;-68
2021/08/16 12:18:34;;;;;;;;;;;24.70;99.90;;;;;;4953737;28;19976;-67
2021/08/16 12:21:01;;;;;;;;;;;24.40;99.90;;;;;;4952001;28;19973;-68
2021/08/16 12:23:41;;;;;;;;;;;24.40;99.90;;;;;;5108938;27;19916;-68
2021/08/16 12:26:28;;;;;;;;;;;24.00;99.90;;;;;;5107029;27;20337;-68
2021/08/16 12:29:19;;;;;;;;;;;24.20;99.90;;;;;;5076697;27;19917;-68
2021/08/16 12:31:58;;;;;;;;;;;24.40;99.90;;;;;;5091876;27;19919;-69
2021/08/16 12:34:41;;;;;;;;;;;24.30;99.90;;;;;;5110273;27;19957;-68
2021/08/16 12:37:22;;;;;;;;;;;24.30;99.90;;;;;;5115525;27;19916;-68
2021/08/16 12:40:09;;;;;;;;;;;24.50;99.90;;;;;;5094064;28;20003;-68
2021/08/16 12:43:01;;;;;;;;;;;24.70;99.90;;;;;;5129254;27;19922;-68
2021/08/16 12:45:42;;;;;;;;;;;24.80;99.90;;;;;;5121532;27;19922;-68
2021/08/16 12:48:22;;;;;;;;;;;25.40;99.90;;;;;;5112672;27;20309;-69
2021/08/16 12:51:01;;;;;;;;;;;25.50;99.90;;;;;;5116438;27;19912;-69
2021/08/16 12:53:41;;;;;;;;;;;25.90;99.90;;;;;;5110837;27;19916;-68
2021/08/16 12:56:21;;;;;;;;;;;25.70;99.90;;;;;;5114132;27;19916;-69
2021/08/16 12:59:02;;;;;;;;;;;25.50;99.90;;;;;;5111103;27;20372;-67
2021/08/16 13:01:43;;;;;;;;;;;26.20;99.90;;;;;;5081500;27;20406;-66
2021/08/16 13:04:24;;;;;;;;;;;26.70;99.90;;;;;;5115727;27;19918;-68
2021/08/16 13:07:03;;;;;;;;;;;26.80;99.90;;;;;;5109123;27;19918;-69
2021/08/16 13:09:43;;;;;;;;;;;26.90;99.90;;;;;;5077357;27;20015;-66
2021/08/16 13:12:36;;;;;;;;;;;26.80;99.90;;;;;;5090704;28;19912;-68
2021/08/16 13:15:19;;;;;;;;;;;26.40;99.90;;;;;;5069884;28;19920;-68
2021/08/16 13:18:00;;;;;;;;;;;25.80;99.90;;;;;;5089126;28;19912;-69
2021/08/16 13:20:40;;;;;;;;;;;25.50;99.90;;;;;;5121119;27;19919;-70
2021/08/16 13:23:20;;;;;;;;;;;25.50;99.90;;;;;;5095322;28;19913;-69
2021/08/16 13:26:02;;;;;;;;;;;25.20;99.90;;;;;;5146779;27;20087;-66
2021/08/16 13:28:43;;;;;;;;;;;25.20;99.90;;;;;;5109586;27;19926;-68
2021/08/16 13:31:23;;;;;;;;;;;25.90;99.90;;;;;;5129917;27;19922;-68
2021/08/16 13:34:05;;;;;;;;;;;26.60;99.90;;;;;;5129665;27;19911;-68
2021/08/16 13:36:45;;;;;;;;;;;27.30;99.90;;;;;;5131368;27;20388;-67
2021/08/16 13:39:25;;;;;;;;;;;27.80;99.90;;;;;;5102064;27;19922;-69
2021/08/16 13:42:06;;;;;;;;;;;28.40;99.90;;;;;;5108186;27;19938;-69
2021/08/16 13:44:46;;;;;;;;;;;29.30;99.90;;;;;;5088939;28;20434;-69
2021/08/16 13:47:25;;;;;;;;;;;29.40;99.90;;;;;;5069021;28;20377;-68
2021/08/16 13:50:06;;;;;;;;;;;28.20;99.90;;;;;;5110586;27;19919;-69
2021/08/16 13:52:47;;;;;;;;;;;28.50;99.90;;;;;;5068596;28;19921;-69
2021/08/16 13:55:27;;;;;;;;;;;29.30;99.90;;;;;;5150762;27;19915;-68
2021/08/16 13:58:08;;;;;;;;;;;28.90;99.90;;;;;;5109243;27;20363;-68
2021/08/16 14:00:48;;;;;;;;;;;29.00;99.90;;;;;;5109404;27;19912;-68
2021/08/16 14:03:29;;;;;;;;;;;30.10;99.60;;;;;;5106028;27;19912;-69
2021/08/16 14:06:09;;;;;;;;;;;31.20;99.40;;;;;;5105026;27;19920;-68
2021/08/16 14:08:49;;;;;;;;;;;31.70;97.30;;;;;;5087292;28;19916;-68
2021/08/16 14:11:29;;;;;;;;;;;30.30;97.30;;;;;;5095018;27;19923;-68
2021/08/16 14:14:09;;;;;;;;;;;29.00;98.60;;;;;;5109289;27;19920;-68
2021/08/16 14:16:48;;;;;;;;;;;27.90;99.80;;;;;;5109305;27;19912;-69
2021/08/16 14:19:28;;;;;;;;;;;27.00;99.90;;;;;;5087643;28;19922;-68
2021/08/16 14:22:08;;;;;;;;;;;26.90;99.90;;;;;;5070127;28;19920;-68
2021/08/16 14:24:47;;;;;;;;;;;26.10;99.90;;;;;;5052772;28;20244;-68
2021/08/16 14:27:27;;;;;;;;;;;25.40;99.90;;;;;;5084483;28;19916;-68
2021/08/16 14:30:07;;;;;;;;;;;24.70;99.90;;;;;;5088487;28;20011;-68
2021/08/16 14:32:47;;;;;;;;;;;25.00;99.90;;;;;;5068082;27;19923;-68